sensor_id;sensor_type;location;lat;lon;timestamp;temperature;humidity
55771;DHT22;41687;-33.234;-60.334;2024-03-02T00:00:51;27.30;91.70
55771;DHT22;41687;-33.234;-60.334;2024-03-02T00:03:19;27.30;91.30
55771;DHT22;41687;-33.234;-60.334;2024-03-02T00:05:51;27.30;91.20
55771;DHT22;41687;-33.234;-60.334;2024-03-02T00:08:27;27.30;91.20
55771;DHT22;41687;-33.234;-60.334;2024-03-02T00:11:00;27.30;91.60
55771;DHT22;41687;-33.234;-60.334;2024-03-02T00:13:30;27.40;91.60
55771;DHT22;41687;-33.234;-60.334;2024-03-02T00:15:58;27.30;91.70
55771;DHT22;41687;-33.234;-60.334;2024-03-02T00:18:34;27.30;92.00
55771;DHT22;41687;-33.234;-60.334;2024-03-02T00:21:06;27.30;92.10
55771;DHT22;41687;-33.234;-60.334;2024-03-02T00:23:40;27.30;92.00
55771;DHT22;41687;-33.234;-60.334;2024-03-02T00:26:12;27.30;92.10
55771;DHT22;41687;-33.234;-60.334;2024-03-02T00:28:40;27.20;92.30
55771;DHT22;41687;-33.234;-60.334;2024-03-02T00:31:15;27.20;92.80
55771;DHT22;41687;-33.234;-60.334;2024-03-02T00:33:48;27.20;93.00
55771;DHT22;41687;-33.234;-60.334;2024-03-02T00:36:22;27.20;92.80
55771;DHT22;41687;-33.234;-60.334;2024-03-02T00:38:52;27.10;93.20
55771;DHT22;41687;-33.234;-60.334;2024-03-02T00:41:30;27.00;93.90
55771;DHT22;41687;-33.234;-60.334;2024-03-02T00:46:40;26.90;95.00
55771;DHT22;41687;-33.234;-60.334;2024-03-02T00:49:24;27.00;95.00
55771;DHT22;41687;-33.234;-60.334;2024-03-02T00:51:54;26.90;95.60
55771;DHT22;41687;-33.234;-60.334;2024-03-02T00:54:25;26.90;95.70
55771;DHT22;41687;-33.234;-60.334;2024-03-02T00:56:54;26.90;95.60
55771;DHT22;41687;-33.234;-60.334;2024-03-02T00:59:23;26.90;95.40
55771;DHT22;41687;-33.234;-60.334;2024-03-02T01:01:50;26.90;95.20
55771;DHT22;41687;-33.234;-60.334;2024-03-02T01:04:18;26.90;95.10
55771;DHT22;41687;-33.234;-60.334;2024-03-02T01:06:46;26.90;94.90
55771;DHT22;41687;-33.234;-60.334;2024-03-02T01:09:13;26.90;95.00
55771;DHT22;41687;-33.234;-60.334;2024-03-02T01:11:41;26.90;94.90
55771;DHT22;41687;-33.234;-60.334;2024-03-02T01:14:08;26.90;94.80
55771;DHT22;41687;-33.234;-60.334;2024-03-02T01:16:36;26.90;94.80
55771;DHT22;41687;-33.234;-60.334;2024-03-02T01:19:06;26.90;94.80
55771;DHT22;41687;-33.234;-60.334;2024-03-02T01:21:34;26.90;94.60
55771;DHT22;41687;-33.234;-60.334;2024-03-02T01:24:01;26.90;94.70
55771;DHT22;41687;-33.234;-60.334;2024-03-02T01:26:29;26.90;94.50
55771;DHT22;41687;-33.234;-60.334;2024-03-02T01:28:57;26.90;94.70
55771;DHT22;41687;-33.234;-60.334;2024-03-02T01:31:24;26.90;94.70
55771;DHT22;41687;-33.234;-60.334;2024-03-02T01:33:51;26.90;94.40
55771;DHT22;41687;-33.234;-60.334;2024-03-02T01:36:23;27.00;94.80
55771;DHT22;41687;-33.234;-60.334;2024-03-02T01:38:50;26.90;94.90
55771;DHT22;41687;-33.234;-60.334;2024-03-02T01:41:18;26.90;95.30
55771;DHT22;41687;-33.234;-60.334;2024-03-02T01:43:45;26.90;95.40
55771;DHT22;41687;-33.234;-60.334;2024-03-02T01:46:16;26.90;95.60
55771;DHT22;41687;-33.234;-60.334;2024-03-02T01:48:44;26.80;96.00
55771;DHT22;41687;-33.234;-60.334;2024-03-02T01:51:11;26.80;96.50
55771;DHT22;41687;-33.234;-60.334;2024-03-02T01:53:42;26.90;96.20
55771;DHT22;41687;-33.234;-60.334;2024-03-02T01:56:09;26.80;96.30
55771;DHT22;41687;-33.234;-60.334;2024-03-02T01:58:37;26.80;96.50
55771;DHT22;41687;-33.234;-60.334;2024-03-02T02:01:05;26.80;96.20
55771;DHT22;41687;-33.234;-60.334;2024-03-02T02:03:33;26.70;96.50
55771;DHT22;41687;-33.234;-60.334;2024-03-02T02:06:00;26.70;96.90
55771;DHT22;41687;-33.234;-60.334;2024-03-02T02:08:28;26.70;97.00
55771;DHT22;41687;-33.234;-60.334;2024-03-02T02:10:56;26.70;97.30
55771;DHT22;41687;-33.234;-60.334;2024-03-02T02:13:24;26.60;97.40
55771;DHT22;41687;-33.234;-60.334;2024-03-02T02:15:51;26.60;98.10
55771;DHT22;41687;-33.234;-60.334;2024-03-02T02:18:19;26.50;98.30
55771;DHT22;41687;-33.234;-60.334;2024-03-02T02:20:47;26.50;98.60
55771;DHT22;41687;-33.234;-60.334;2024-03-02T02:23:15;26.60;98.70
55771;DHT22;41687;-33.234;-60.334;2024-03-02T02:25:42;26.50;99.20
55771;DHT22;41687;-33.234;-60.334;2024-03-02T02:28:10;26.50;99.20
55771;DHT22;41687;-33.234;-60.334;2024-03-02T02:30:37;26.50;99.40
55771;DHT22;41687;-33.234;-60.334;2024-03-02T02:33:05;26.50;99.90
55771;DHT22;41687;-33.234;-60.334;2024-03-02T02:35:33;26.50;99.90
55771;DHT22;41687;-33.234;-60.334;2024-03-02T02:38:00;26.50;99.90
55771;DHT22;41687;-33.234;-60.334;2024-03-02T02:40:28;26.50;99.90
55771;DHT22;41687;-33.234;-60.334;2024-03-02T02:42:59;26.50;99.90
55771;DHT22;41687;-33.234;-60.334;2024-03-02T02:45:27;26.40;99.90
55771;DHT22;41687;-33.234;-60.334;2024-03-02T02:47:55;26.50;99.90
55771;DHT22;41687;-33.234;-60.334;2024-03-02T02:50:22;26.50;99.90
55771;DHT22;41687;-33.234;-60.334;2024-03-02T02:52:50;26.40;99.90
55771;DHT22;41687;-33.234;-60.334;2024-03-02T02:55:17;26.40;99.90
55771;DHT22;41687;-33.234;-60.334;2024-03-02T02:57:45;26.40;99.90
55771;DHT22;41687;-33.234;-60.334;2024-03-02T03:00:14;26.40;99.90
55771;DHT22;41687;-33.234;-60.334;2024-03-02T03:02:47;26.40;99.90
55771;DHT22;41687;-33.234;-60.334;2024-03-02T03:05:16;26.40;99.90
55771;DHT22;41687;-33.234;-60.334;2024-03-02T03:07:44;26.40;99.90
55771;DHT22;41687;-33.234;-60.334;2024-03-02T03:10:12;26.40;99.90
55771;DHT22;41687;-33.234;-60.334;2024-03-02T03:12:40;26.40;99.90
55771;DHT22;41687;-33.234;-60.334;2024-03-02T03:15:10;26.30;99.90
55771;DHT22;41687;-33.234;-60.334;2024-03-02T03:17:38;26.40;99.90
55771;DHT22;41687;-33.234;-60.334;2024-03-02T03:20:06;26.30;99.90
55771;DHT22;41687;-33.234;-60.334;2024-03-02T03:22:40;26.30;99.90
55771;DHT22;41687;-33.234;-60.334;2024-03-02T03:25:08;26.30;99.90
55771;DHT22;41687;-33.234;-60.334;2024-03-02T03:27:35;26.30;99.90
55771;DHT22;41687;-33.234;-60.334;2024-03-02T03:30:03;26.30;99.90
55771;DHT22;41687;-33.234;-60.334;2024-03-02T03:32:32;26.30;99.90
55771;DHT22;41687;-33.234;-60.334;2024-03-02T03:35:00;26.40;99.90
55771;DHT22;41687;-33.234;-60.334;2024-03-02T03:37:27;26.40;99.90
55771;DHT22;41687;-33.234;-60.334;2024-03-02T03:40:01;26.40;99.90
55771;DHT22;41687;-33.234;-60.334;2024-03-02T03:42:29;26.40;99.90
55771;DHT22;41687;-33.234;-60.334;2024-03-02T03:44:57;26.40;99.80
55771;DHT22;41687;-33.234;-60.334;2024-03-02T03:47:25;26.40;99.20
55771;DHT22;41687;-33.234;-60.334;2024-03-02T03:49:52;26.40;98.80
55771;DHT22;41687;-33.234;-60.334;2024-03-02T03:52:20;26.30;98.50
55771;DHT22;41687;-33.234;-60.334;2024-03-02T03:54:47;26.30;97.40
55771;DHT22;41687;-33.234;-60.334;2024-03-02T03:57:15;26.20;96.60
55771;DHT22;41687;-33.234;-60.334;2024-03-02T03:59:43;26.10;95.80
55771;DHT22;41687;-33.234;-60.334;2024-03-02T04:02:11;26.10;95.90
55771;DHT22;41687;-33.234;-60.334;2024-03-02T04:04:41;26.00;95.10
55771;DHT22;41687;-33.234;-60.334;2024-03-02T04:07:09;26.00;95.10
55771;DHT22;41687;-33.234;-60.334;2024-03-02T04:09:37;26.00;95.50
55771;DHT22;41687;-33.234;-60.334;2024-03-02T04:12:04;26.00;95.60
55771;DHT22;41687;-33.234;-60.334;2024-03-02T04:14:32;26.00;95.40
55771;DHT22;41687;-33.234;-60.334;2024-03-02T04:17:00;25.90;95.50
55771;DHT22;41687;-33.234;-60.334;2024-03-02T04:19:27;25.90;95.70
55771;DHT22;41687;-33.234;-60.334;2024-03-02T04:21:55;25.80;95.60
55771;DHT22;41687;-33.234;-60.334;2024-03-02T04:24:22;25.70;96.20
55771;DHT22;41687;-33.234;-60.334;2024-03-02T04:26:50;25.70;96.30
55771;DHT22;41687;-33.234;-60.334;2024-03-02T04:29:17;25.70;96.40
55771;DHT22;41687;-33.234;-60.334;2024-03-02T04:31:45;25.70;96.50
55771;DHT22;41687;-33.234;-60.334;2024-03-02T04:34:13;25.70;96.80
55771;DHT22;41687;-33.234;-60.334;2024-03-02T04:36:41;25.70;97.00
55771;DHT22;41687;-33.234;-60.334;2024-03-02T04:39:08;25.70;96.90
55771;DHT22;41687;-33.234;-60.334;2024-03-02T04:41:36;25.70;97.10
55771;DHT22;41687;-33.234;-60.334;2024-03-02T04:44:04;25.70;97.20
55771;DHT22;41687;-33.234;-60.334;2024-03-02T04:46:32;25.70;97.00
55771;DHT22;41687;-33.234;-60.334;2024-03-02T04:48:59;25.60;97.30
55771;DHT22;41687;-33.234;-60.334;2024-03-02T04:51:27;25.60;97.40
55771;DHT22;41687;-33.234;-60.334;2024-03-02T04:53:54;25.50;97.70
55771;DHT22;41687;-33.234;-60.334;2024-03-02T04:56:22;25.60;97.40
55771;DHT22;41687;-33.234;-60.334;2024-03-02T04:58:49;25.60;97.10
55771;DHT22;41687;-33.234;-60.334;2024-03-02T05:01:17;25.70;96.90
55771;DHT22;41687;-33.234;-60.334;2024-03-02T05:03:45;25.70;96.70
55771;DHT22;41687;-33.234;-60.334;2024-03-02T05:06:12;25.70;96.90
55771;DHT22;41687;-33.234;-60.334;2024-03-02T05:08:40;25.70;97.00
55771;DHT22;41687;-33.234;-60.334;2024-03-02T05:11:08;25.60;97.50
55771;DHT22;41687;-33.234;-60.334;2024-03-02T05:14:02;25.50;97.80
55771;DHT22;41687;-33.234;-60.334;2024-03-02T05:16:32;25.50;98.20
55771;DHT22;41687;-33.234;-60.334;2024-03-02T05:19:01;25.40;98.60
55771;DHT22;41687;-33.234;-60.334;2024-03-02T05:21:28;25.40;99.00
55771;DHT22;41687;-33.234;-60.334;2024-03-02T05:23:56;25.40;99.20
55771;DHT22;41687;-33.234;-60.334;2024-03-02T05:26:23;25.40;99.40
55771;DHT22;41687;-33.234;-60.334;2024-03-02T05:28:51;25.30;99.80
55771;DHT22;41687;-33.234;-60.334;2024-03-02T05:31:18;25.30;99.70
55771;DHT22;41687;-33.234;-60.334;2024-03-02T05:33:46;25.20;99.90
55771;DHT22;41687;-33.234;-60.334;2024-03-02T05:36:13;25.20;99.90
55771;DHT22;41687;-33.234;-60.334;2024-03-02T05:38:41;25.10;99.90
55771;DHT22;41687;-33.234;-60.334;2024-03-02T05:41:09;25.20;99.90
55771;DHT22;41687;-33.234;-60.334;2024-03-02T05:43:36;25.20;99.90
55771;DHT22;41687;-33.234;-60.334;2024-03-02T05:46:03;25.20;99.90
55771;DHT22;41687;-33.234;-60.334;2024-03-02T05:48:31;25.30;99.90
55771;DHT22;41687;-33.234;-60.334;2024-03-02T05:50:59;25.20;99.80
55771;DHT22;41687;-33.234;-60.334;2024-03-02T05:53:26;25.20;99.90
55771;DHT22;41687;-33.234;-60.334;2024-03-02T05:55:54;25.30;99.90
55771;DHT22;41687;-33.234;-60.334;2024-03-02T05:58:23;25.20;99.90
55771;DHT22;41687;-33.234;-60.334;2024-03-02T06:01:20;25.20;99.90
55771;DHT22;41687;-33.234;-60.334;2024-03-02T06:03:49;25.20;99.90
55771;DHT22;41687;-33.234;-60.334;2024-03-02T06:06:17;25.30;99.90
55771;DHT22;41687;-33.234;-60.334;2024-03-02T06:08:44;25.20;99.90
55771;DHT22;41687;-33.234;-60.334;2024-03-02T06:11:12;25.30;99.90
55771;DHT22;41687;-33.234;-60.334;2024-03-02T06:13:39;25.30;99.90
55771;DHT22;41687;-33.234;-60.334;2024-03-02T06:16:07;25.30;99.90
55771;DHT22;41687;-33.234;-60.334;2024-03-02T06:18:35;25.20;99.90
55771;DHT22;41687;-33.234;-60.334;2024-03-02T06:21:03;25.20;99.90
55771;DHT22;41687;-33.234;-60.334;2024-03-02T06:23:30;25.20;99.90
55771;DHT22;41687;-33.234;-60.334;2024-03-02T06:25:59;25.20;99.90
55771;DHT22;41687;-33.234;-60.334;2024-03-02T06:28:26;25.20;99.90
55771;DHT22;41687;-33.234;-60.334;2024-03-02T06:30:54;25.20;99.90
55771;DHT22;41687;-33.234;-60.334;2024-03-02T06:33:21;25.20;99.90
55771;DHT22;41687;-33.234;-60.334;2024-03-02T06:35:49;25.10;99.90
55771;DHT22;41687;-33.234;-60.334;2024-03-02T06:38:16;25.10;99.90
55771;DHT22;41687;-33.234;-60.334;2024-03-02T06:40:44;25.10;99.90
55771;DHT22;41687;-33.234;-60.334;2024-03-02T06:43:12;25.00;99.90
55771;DHT22;41687;-33.234;-60.334;2024-03-02T06:45:40;25.00;99.90
55771;DHT22;41687;-33.234;-60.334;2024-03-02T06:48:07;25.00;99.90
55771;DHT22;41687;-33.234;-60.334;2024-03-02T06:50:35;25.00;99.90
55771;DHT22;41687;-33.234;-60.334;2024-03-02T06:53:02;25.00;99.90
55771;DHT22;41687;-33.234;-60.334;2024-03-02T06:55:31;25.00;99.90
55771;DHT22;41687;-33.234;-60.334;2024-03-02T06:57:58;25.00;99.90
55771;DHT22;41687;-33.234;-60.334;2024-03-02T07:00:26;25.00;99.90
55771;DHT22;41687;-33.234;-60.334;2024-03-02T07:02:53;25.00;99.90
55771;DHT22;41687;-33.234;-60.334;2024-03-02T07:05:21;25.00;99.90
55771;DHT22;41687;-33.234;-60.334;2024-03-02T07:07:49;24.90;99.90
55771;DHT22;41687;-33.234;-60.334;2024-03-02T07:10:16;25.00;99.90
55771;DHT22;41687;-33.234;-60.334;2024-03-02T07:12:44;24.90;99.90
55771;DHT22;41687;-33.234;-60.334;2024-03-02T07:15:12;24.90;99.90
55771;DHT22;41687;-33.234;-60.334;2024-03-02T07:17:56;24.90;99.90
55771;DHT22;41687;-33.234;-60.334;2024-03-02T07:20:23;24.90;99.90
55771;DHT22;41687;-33.234;-60.334;2024-03-02T07:22:51;24.80;99.90
55771;DHT22;41687;-33.234;-60.334;2024-03-02T07:25:18;24.70;99.90
55771;DHT22;41687;-33.234;-60.334;2024-03-02T07:27:46;24.80;99.90
55771;DHT22;41687;-33.234;-60.334;2024-03-02T07:30:16;24.80;99.90
55771;DHT22;41687;-33.234;-60.334;2024-03-02T07:32:44;24.90;99.90
55771;DHT22;41687;-33.234;-60.334;2024-03-02T07:35:13;25.00;99.90
55771;DHT22;41687;-33.234;-60.334;2024-03-02T07:37:44;25.00;99.90
55771;DHT22;41687;-33.234;-60.334;2024-03-02T07:40:12;25.00;99.90
55771;DHT22;41687;-33.234;-60.334;2024-03-02T07:42:40;25.00;99.90
55771;DHT22;41687;-33.234;-60.334;2024-03-02T07:45:11;25.00;99.90
55771;DHT22;41687;-33.234;-60.334;2024-03-02T07:47:40;25.00;99.90
55771;DHT22;41687;-33.234;-60.334;2024-03-02T07:50:07;25.00;99.90
55771;DHT22;41687;-33.234;-60.334;2024-03-02T07:52:36;24.90;99.90
55771;DHT22;41687;-33.234;-60.334;2024-03-02T07:55:04;25.00;99.90
55771;DHT22;41687;-33.234;-60.334;2024-03-02T07:57:32;24.90;99.90
55771;DHT22;41687;-33.234;-60.334;2024-03-02T07:59:59;24.90;99.90
55771;DHT22;41687;-33.234;-60.334;2024-03-02T08:02:27;24.90;99.90
55771;DHT22;41687;-33.234;-60.334;2024-03-02T08:04:55;24.90;99.90
55771;DHT22;41687;-33.234;-60.334;2024-03-02T08:07:23;25.00;99.90
55771;DHT22;41687;-33.234;-60.334;2024-03-02T08:09:50;25.00;99.90
55771;DHT22;41687;-33.234;-60.334;2024-03-02T08:12:18;25.10;99.90
55771;DHT22;41687;-33.234;-60.334;2024-03-02T08:14:46;25.10;99.90
55771;DHT22;41687;-33.234;-60.334;2024-03-02T08:17:14;25.10;99.90
55771;DHT22;41687;-33.234;-60.334;2024-03-02T08:19:41;25.00;99.90
55771;DHT22;41687;-33.234;-60.334;2024-03-02T08:22:09;25.00;99.90
55771;DHT22;41687;-33.234;-60.334;2024-03-02T08:24:37;25.00;99.90
55771;DHT22;41687;-33.234;-60.334;2024-03-02T08:27:04;25.00;99.90
55771;DHT22;41687;-33.234;-60.334;2024-03-02T08:29:32;24.90;99.90
55771;DHT22;41687;-33.234;-60.334;2024-03-02T08:32:00;24.90;99.90
55771;DHT22;41687;-33.234;-60.334;2024-03-02T08:34:27;24.90;99.90
55771;DHT22;41687;-33.234;-60.334;2024-03-02T08:36:55;24.90;99.90
55771;DHT22;41687;-33.234;-60.334;2024-03-02T08:39:22;24.80;99.90
55771;DHT22;41687;-33.234;-60.334;2024-03-02T08:41:50;24.80;99.90
55771;DHT22;41687;-33.234;-60.334;2024-03-02T08:44:18;24.70;99.90
55771;DHT22;41687;-33.234;-60.334;2024-03-02T08:46:46;24.70;99.90
55771;DHT22;41687;-33.234;-60.334;2024-03-02T08:49:13;24.70;99.90
55771;DHT22;41687;-33.234;-60.334;2024-03-02T08:51:41;24.70;99.90
55771;DHT22;41687;-33.234;-60.334;2024-03-02T08:54:09;24.70;99.90
55771;DHT22;41687;-33.234;-60.334;2024-03-02T08:56:36;24.60;99.90
55771;DHT22;41687;-33.234;-60.334;2024-03-02T08:59:04;24.60;99.90
55771;DHT22;41687;-33.234;-60.334;2024-03-02T09:01:33;24.60;99.90
55771;DHT22;41687;-33.234;-60.334;2024-03-02T09:04:00;24.60;99.90
55771;DHT22;41687;-33.234;-60.334;2024-03-02T09:06:28;24.70;99.90
55771;DHT22;41687;-33.234;-60.334;2024-03-02T09:08:55;24.70;99.90
55771;DHT22;41687;-33.234;-60.334;2024-03-02T09:11:23;24.80;99.90
55771;DHT22;41687;-33.234;-60.334;2024-03-02T09:13:51;24.80;99.90
55771;DHT22;41687;-33.234;-60.334;2024-03-02T09:16:20;24.80;99.90
55771;DHT22;41687;-33.234;-60.334;2024-03-02T09:18:47;24.70;99.90
55771;DHT22;41687;-33.234;-60.334;2024-03-02T09:21:15;24.80;99.90
55771;DHT22;41687;-33.234;-60.334;2024-03-02T09:23:42;24.60;99.90
55771;DHT22;41687;-33.234;-60.334;2024-03-02T09:26:12;24.60;99.90
55771;DHT22;41687;-33.234;-60.334;2024-03-02T09:28:43;24.50;99.90
55771;DHT22;41687;-33.234;-60.334;2024-03-02T09:31:11;24.40;99.90
55771;DHT22;41687;-33.234;-60.334;2024-03-02T09:33:39;24.30;99.90
55771;DHT22;41687;-33.234;-60.334;2024-03-02T09:36:16;24.30;99.90
55771;DHT22;41687;-33.234;-60.334;2024-03-02T09:38:44;24.30;99.90
55771;DHT22;41687;-33.234;-60.334;2024-03-02T09:41:12;24.30;99.90
55771;DHT22;41687;-33.234;-60.334;2024-03-02T09:43:40;24.40;99.90
55771;DHT22;41687;-33.234;-60.334;2024-03-02T09:46:10;24.30;99.90
55771;DHT22;41687;-33.234;-60.334;2024-03-02T09:48:39;24.30;99.90
55771;DHT22;41687;-33.234;-60.334;2024-03-02T09:51:06;24.30;99.90
55771;DHT22;41687;-33.234;-60.334;2024-03-02T09:53:34;24.40;99.90
55771;DHT22;41687;-33.234;-60.334;2024-03-02T09:56:01;24.40;99.90
55771;DHT22;41687;-33.234;-60.334;2024-03-02T09:58:30;24.40;99.90
55771;DHT22;41687;-33.234;-60.334;2024-03-02T10:00:57;24.50;99.90
55771;DHT22;41687;-33.234;-60.334;2024-03-02T10:03:27;24.50;99.90
55771;DHT22;41687;-33.234;-60.334;2024-03-02T10:05:56;24.50;99.90
55771;DHT22;41687;-33.234;-60.334;2024-03-02T10:08:23;24.50;99.90
55771;DHT22;41687;-33.234;-60.334;2024-03-02T10:10:53;24.40;99.90
55771;DHT22;41687;-33.234;-60.334;2024-03-02T10:13:25;24.40;99.90
55771;DHT22;41687;-33.234;-60.334;2024-03-02T10:15:53;24.40;99.90
55771;DHT22;41687;-33.234;-60.334;2024-03-02T10:18:27;24.50;99.90
55771;DHT22;41687;-33.234;-60.334;2024-03-02T10:21:13;24.60;99.90
55771;DHT22;41687;-33.234;-60.334;2024-03-02T10:23:42;24.60;99.90
55771;DHT22;41687;-33.234;-60.334;2024-03-02T10:26:18;24.70;99.90
55771;DHT22;41687;-33.234;-60.334;2024-03-02T10:28:49;24.70;99.90
55771;DHT22;41687;-33.234;-60.334;2024-03-02T10:31:19;24.70;99.90
55771;DHT22;41687;-33.234;-60.334;2024-03-02T10:33:46;24.80;99.90
55771;DHT22;41687;-33.234;-60.334;2024-03-02T10:36:15;24.80;99.90
55771;DHT22;41687;-33.234;-60.334;2024-03-02T10:38:43;24.70;99.90
55771;DHT22;41687;-33.234;-60.334;2024-03-02T10:41:11;24.70;99.90
55771;DHT22;41687;-33.234;-60.334;2024-03-02T10:43:38;24.70;99.90
55771;DHT22;41687;-33.234;-60.334;2024-03-02T10:46:06;24.70;99.90
55771;DHT22;41687;-33.234;-60.334;2024-03-02T10:48:34;24.70;99.90
55771;DHT22;41687;-33.234;-60.334;2024-03-02T10:51:03;24.70;99.90
55771;DHT22;41687;-33.234;-60.334;2024-03-02T10:53:30;24.70;99.90
55771;DHT22;41687;-33.234;-60.334;2024-03-02T10:55:58;24.70;99.90
55771;DHT22;41687;-33.234;-60.334;2024-03-02T10:58:34;24.60;99.90
55771;DHT22;41687;-33.234;-60.334;2024-03-02T11:01:06;24.50;99.90
55771;DHT22;41687;-33.234;-60.334;2024-03-02T11:03:35;24.50;99.90
55771;DHT22;41687;-33.234;-60.334;2024-03-02T11:06:08;24.40;99.90
55771;DHT22;41687;-33.234;-60.334;2024-03-02T11:08:38;24.30;99.90
55771;DHT22;41687;-33.234;-60.334;2024-03-02T11:11:11;24.30;99.90
55771;DHT22;41687;-33.234;-60.334;2024-03-02T11:13:45;24.20;99.90
55771;DHT22;41687;-33.234;-60.334;2024-03-02T11:16:33;24.20;99.90
55771;DHT22;41687;-33.234;-60.334;2024-03-02T11:19:06;24.30;99.90
55771;DHT22;41687;-33.234;-60.334;2024-03-02T11:21:35;24.30;99.90
55771;DHT22;41687;-33.234;-60.334;2024-03-02T11:26:52;24.60;99.90
55771;DHT22;41687;-33.234;-60.334;2024-03-02T11:32:21;24.70;99.90
55771;DHT22;41687;-33.234;-60.334;2024-03-02T11:34:52;24.70;99.90
55771;DHT22;41687;-33.234;-60.334;2024-03-02T11:37:20;24.70;99.90
55771;DHT22;41687;-33.234;-60.334;2024-03-02T11:39:51;24.80;99.90
55771;DHT22;41687;-33.234;-60.334;2024-03-02T11:42:19;24.80;99.90
55771;DHT22;41687;-33.234;-60.334;2024-03-02T11:44:47;24.80;99.90
55771;DHT22;41687;-33.234;-60.334;2024-03-02T11:47:17;24.80;99.90
55771;DHT22;41687;-33.234;-60.334;2024-03-02T11:49:46;24.70;99.90
55771;DHT22;41687;-33.234;-60.334;2024-03-02T11:52:16;24.70;99.90
55771;DHT22;41687;-33.234;-60.334;2024-03-02T11:54:46;24.80;99.90
55771;DHT22;41687;-33.234;-60.334;2024-03-02T11:57:16;24.80;99.90
55771;DHT22;41687;-33.234;-60.334;2024-03-02T11:59:44;24.80;99.90
55771;DHT22;41687;-33.234;-60.334;2024-03-02T12:02:20;24.90;99.90
55771;DHT22;41687;-33.234;-60.334;2024-03-02T12:04:49;24.90;99.90
55771;DHT22;41687;-33.234;-60.334;2024-03-02T12:07:22;24.90;99.90
55771;DHT22;41687;-33.234;-60.334;2024-03-02T12:10:00;24.90;99.90
55771;DHT22;41687;-33.234;-60.334;2024-03-02T12:12:28;25.00;99.90
55771;DHT22;41687;-33.234;-60.334;2024-03-02T12:14:56;25.10;99.90
55771;DHT22;41687;-33.234;-60.334;2024-03-02T12:17:24;25.20;99.90
55771;DHT22;41687;-33.234;-60.334;2024-03-02T12:19:51;25.20;99.90
55771;DHT22;41687;-33.234;-60.334;2024-03-02T12:22:22;25.20;99.90
55771;DHT22;41687;-33.234;-60.334;2024-03-02T12:24:49;25.20;99.90
55771;DHT22;41687;-33.234;-60.334;2024-03-02T12:27:17;25.20;99.90
55771;DHT22;41687;-33.234;-60.334;2024-03-02T12:29:48;25.30;99.90
55771;DHT22;41687;-33.234;-60.334;2024-03-02T12:32:19;25.30;99.90
55771;DHT22;41687;-33.234;-60.334;2024-03-02T12:34:47;25.20;99.90
55771;DHT22;41687;-33.234;-60.334;2024-03-02T12:37:15;25.20;99.90
55771;DHT22;41687;-33.234;-60.334;2024-03-02T12:39:45;25.20;99.90
55771;DHT22;41687;-33.234;-60.334;2024-03-02T12:42:13;25.20;99.90
55771;DHT22;41687;-33.234;-60.334;2024-03-02T12:44:41;25.30;99.90
55771;DHT22;41687;-33.234;-60.334;2024-03-02T12:47:09;25.20;99.90
55771;DHT22;41687;-33.234;-60.334;2024-03-02T12:49:36;25.30;99.90
55771;DHT22;41687;-33.234;-60.334;2024-03-02T12:52:04;25.30;99.90
55771;DHT22;41687;-33.234;-60.334;2024-03-02T12:54:33;25.30;99.90
55771;DHT22;41687;-33.234;-60.334;2024-03-02T12:57:00;25.30;99.90
55771;DHT22;41687;-33.234;-60.334;2024-03-02T12:59:29;25.40;99.90
55771;DHT22;41687;-33.234;-60.334;2024-03-02T13:01:58;25.40;99.90
55771;DHT22;41687;-33.234;-60.334;2024-03-02T13:04:28;25.50;99.90
55771;DHT22;41687;-33.234;-60.334;2024-03-02T13:06:56;25.50;99.90
55771;DHT22;41687;-33.234;-60.334;2024-03-02T13:09:28;25.50;99.90
55771;DHT22;41687;-33.234;-60.334;2024-03-02T13:11:56;25.50;99.90
55771;DHT22;41687;-33.234;-60.334;2024-03-02T13:14:24;25.50;99.90
55771;DHT22;41687;-33.234;-60.334;2024-03-02T13:16:52;25.50;99.90
55771;DHT22;41687;-33.234;-60.334;2024-03-02T13:19:20;25.50;99.90
55771;DHT22;41687;-33.234;-60.334;2024-03-02T13:21:47;25.20;95.30
55771;DHT22;41687;-33.234;-60.334;2024-03-02T13:24:17;25.00;94.90
55771;DHT22;41687;-33.234;-60.334;2024-03-02T13:26:46;24.70;92.60
55771;DHT22;41687;-33.234;-60.334;2024-03-02T13:29:14;24.60;90.30
55771;DHT22;41687;-33.234;-60.334;2024-03-02T13:31:41;24.40;90.60
55771;DHT22;41687;-33.234;-60.334;2024-03-02T13:34:09;24.20;91.00
55771;DHT22;41687;-33.234;-60.334;2024-03-02T13:36:36;24.10;90.70
55771;DHT22;41687;-33.234;-60.334;2024-03-02T13:39:05;23.90;90.30
55771;DHT22;41687;-33.234;-60.334;2024-03-02T13:41:39;23.90;90.40
55771;DHT22;41687;-33.234;-60.334;2024-03-02T13:44:07;23.70;90.40
55771;DHT22;41687;-33.234;-60.334;2024-03-02T13:46:34;23.80;90.70
55771;DHT22;41687;-33.234;-60.334;2024-03-02T13:49:03;23.60;90.60
55771;DHT22;41687;-33.234;-60.334;2024-03-02T13:51:33;23.60;90.50
55771;DHT22;41687;-33.234;-60.334;2024-03-02T13:54:03;23.60;90.70
55771;DHT22;41687;-33.234;-60.334;2024-03-02T13:56:31;23.70;90.70
55771;DHT22;41687;-33.234;-60.334;2024-03-02T13:58:59;23.90;89.90
55771;DHT22;41687;-33.234;-60.334;2024-03-02T14:01:27;24.10;90.30
55771;DHT22;41687;-33.234;-60.334;2024-03-02T14:04:00;24.50;90.10
55771;DHT22;41687;-33.234;-60.334;2024-03-02T14:06:28;25.00;87.60
55771;DHT22;41687;-33.234;-60.334;2024-03-02T14:08:58;25.40;86.20
55771;DHT22;41687;-33.234;-60.334;2024-03-02T14:11:26;26.00;85.10
55771;DHT22;41687;-33.234;-60.334;2024-03-02T14:13:53;26.70;84.10
55771;DHT22;41687;-33.234;-60.334;2024-03-02T14:16:24;27.10;81.70
55771;DHT22;41687;-33.234;-60.334;2024-03-02T14:18:52;27.50;80.40
55771;DHT22;41687;-33.234;-60.334;2024-03-02T14:21:19;28.00;77.70
55771;DHT22;41687;-33.234;-60.334;2024-03-02T14:23:47;28.50;77.50
55771;DHT22;41687;-33.234;-60.334;2024-03-02T14:26:15;28.90;76.20
55771;DHT22;41687;-33.234;-60.334;2024-03-02T14:28:46;29.00;74.90
55771;DHT22;41687;-33.234;-60.334;2024-03-02T14:31:13;29.30;74.30
55771;DHT22;41687;-33.234;-60.334;2024-03-02T14:33:45;29.30;71.60
55771;DHT22;41687;-33.234;-60.334;2024-03-02T14:36:12;29.70;74.10
55771;DHT22;41687;-33.234;-60.334;2024-03-02T14:38:40;30.00;72.10
55771;DHT22;41687;-33.234;-60.334;2024-03-02T14:41:07;30.20;70.20
55771;DHT22;41687;-33.234;-60.334;2024-03-02T14:43:36;30.30;70.70
55771;DHT22;41687;-33.234;-60.334;2024-03-02T14:46:04;30.40;69.60
55771;DHT22;41687;-33.234;-60.334;2024-03-02T14:48:33;30.50;69.40
55771;DHT22;41687;-33.234;-60.334;2024-03-02T14:51:00;30.70;69.50
55771;DHT22;41687;-33.234;-60.334;2024-03-02T14:53:29;31.00;69.10
55771;DHT22;41687;-33.234;-60.334;2024-03-02T14:55:57;31.30;66.80
55771;DHT22;41687;-33.234;-60.334;2024-03-02T14:58:24;31.40;68.00
55771;DHT22;41687;-33.234;-60.334;2024-03-02T15:00:56;31.70;69.60
55771;DHT22;41687;-33.234;-60.334;2024-03-02T15:03:24;31.90;69.50
55771;DHT22;41687;-33.234;-60.334;2024-03-02T15:05:55;31.90;69.60